createdAt,value
2023-02-15T00:00:45.593Z,172.47
2023-02-15T00:03:31.426Z,224.20
2023-02-15T00:06:00.152Z,198.00
2023-02-15T00:08:28.187Z,176.60
2023-02-15T00:11:08.448Z,154.73
2023-02-15T00:13:37.370Z,201.13
2023-02-15T00:16:09.108Z,164.40
2023-02-15T00:18:36.897Z,151.30
2023-02-15T00:21:07.504Z,159.23
2023-02-15T00:23:36.098Z,114.37
2023-02-15T00:26:08.552Z,159.03
2023-02-15T00:28:36.314Z,138.77
2023-02-15T00:31:06.544Z,199.73
2023-02-15T00:33:37.503Z,273.00
2023-02-15T00:36:10.151Z,130.20
2023-02-15T00:38:38.030Z,168.23
2023-02-15T00:41:08.062Z,267.87
2023-02-15T00:43:36.500Z,109.60
2023-02-15T00:46:06.352Z,155.03
2023-02-15T00:48:34.469Z,243.03
2023-02-15T00:51:02.846Z,222.27
2023-02-15T00:53:30.908Z,106.70
2023-02-15T00:56:00.291Z,105.10
2023-02-15T00:58:28.310Z,113.40
2023-02-15T01:00:56.239Z,113.30
2023-02-15T01:03:24.786Z,114.10
2023-02-15T01:05:52.325Z,151.30
2023-02-15T01:08:20.725Z,141.07
2023-02-15T01:10:50.996Z,113.20
2023-02-15T01:13:18.981Z,100.87
2023-02-15T01:15:47.024Z,131.13
2023-02-15T01:18:14.881Z,113.90
2023-02-15T01:20:43.076Z,178.17
2023-02-15T01:23:10.474Z,149.80
2023-02-15T01:25:38.983Z,193.17
2023-02-15T01:28:06.990Z,194.47
2023-02-15T01:30:35.218Z,169.23
2023-02-15T01:33:03.042Z,132.53
2023-02-15T01:35:32.810Z,162.07
2023-02-15T01:38:00.904Z,149.77
2023-02-15T01:40:28.853Z,172.20
2023-02-15T01:42:57.102Z,129.80
2023-02-15T01:45:28.133Z,163.83
2023-02-15T01:47:56.305Z,129.40
2023-02-15T01:50:36.460Z,101.20
2023-02-15T01:53:33.647Z,121.60
2023-02-15T01:56:10.188Z,138.07
2023-02-15T01:58:38.536Z,124.83
2023-02-15T02:01:09.213Z,122.97
2023-02-15T02:03:37.721Z,103.07
2023-02-15T02:06:05.894Z,105.97
2023-02-15T02:08:34.086Z,105.63
2023-02-15T02:11:02.411Z,102.37
2023-02-15T02:13:30.477Z,114.20
2023-02-15T02:16:20.225Z,116.03
2023-02-15T02:18:58.508Z,113.20
2023-02-15T02:21:58.753Z,117.40
2023-02-15T02:24:44.988Z,113.07
2023-02-15T02:27:34.668Z,121.27
2023-02-15T02:30:08.750Z,119.73
2023-02-15T02:33:12.398Z,117.60
2023-02-15T02:35:40.813Z,107.70
2023-02-15T02:38:23.172Z,123.30
2023-02-15T02:41:08.917Z,117.83
2023-02-15T02:43:56.436Z,108.00
2023-02-15T02:46:31.504Z,111.63
2023-02-15T02:48:59.657Z,120.00
2023-02-15T02:51:27.538Z,112.60
2023-02-15T02:54:00.819Z,121.30
2023-02-15T02:56:37.426Z,118.23
2023-02-15T02:59:12.954Z,110.53
2023-02-15T03:02:14.265Z,112.07
2023-02-15T03:04:59.650Z,113.80
2023-02-15T03:07:29.942Z,113.03
2023-02-15T03:10:01.654Z,101.43
2023-02-15T03:12:38.606Z,115.13
2023-02-15T03:15:50.531Z,123.77
2023-02-15T03:18:21.271Z,101.20
2023-02-15T03:20:50.443Z,109.20
2023-02-15T03:23:21.793Z,108.80
2023-02-15T03:25:54.389Z,120.70
2023-02-15T03:28:47.024Z,119.73
2023-02-15T03:31:18.067Z,103.50
2023-02-15T03:33:59.302Z,128.50
2023-02-15T03:36:45.747Z,116.50
2023-02-15T03:39:33.106Z,135.57
2023-02-15T03:42:08.474Z,152.60
2023-02-15T03:45:01.722Z,137.33
2023-02-15T03:47:41.024Z,134.77
2023-02-15T03:50:31.593Z,139.50
2023-02-15T03:53:04.005Z,167.60
2023-02-15T03:55:32.241Z,143.83
2023-02-15T03:58:19.180Z,160.47
2023-02-15T04:01:23.813Z,155.40
2023-02-15T04:03:58.921Z,154.30
2023-02-15T04:06:28.619Z,150.53
2023-02-15T04:09:15.269Z,141.37
2023-02-15T04:11:43.168Z,165.73
2023-02-15T04:14:30.249Z,140.57
2023-02-15T04:16:58.212Z,140.47
2023-02-15T04:19:44.876Z,150.70
2023-02-15T04:22:31.145Z,143.43
2023-02-15T04:25:14.413Z,134.47
2023-02-15T04:27:45.880Z,165.30
2023-02-15T04:30:15.422Z,154.70
2023-02-15T04:32:43.315Z,153.40
2023-02-15T04:35:12.381Z,159.93
2023-02-15T04:37:41.211Z,148.73
2023-02-15T04:40:12.026Z,127.07
2023-02-15T04:42:40.053Z,142.13
2023-02-15T04:45:08.796Z,135.83
2023-02-15T04:47:36.715Z,144.30
2023-02-15T04:50:05.159Z,143.60
2023-02-15T04:52:33.040Z,133.77
2023-02-15T04:55:01.227Z,149.87
2023-02-15T04:57:29.049Z,145.63
2023-02-15T04:59:58.319Z,140.37
2023-02-15T05:02:26.052Z,137.20
2023-02-15T05:04:54.306Z,149.70
2023-02-15T05:07:22.390Z,143.47
2023-02-15T05:09:50.784Z,148.47
2023-02-15T05:12:18.734Z,151.07
2023-02-15T05:14:47.014Z,150.83
2023-02-15T05:17:14.756Z,147.17
2023-02-15T05:19:42.899Z,140.70
2023-02-15T05:22:10.845Z,147.97
2023-02-15T05:25:08.205Z,135.33
2023-02-15T05:27:54.837Z,134.97
2023-02-15T05:30:23.225Z,165.40
2023-02-15T05:32:51.219Z,138.37
2023-02-15T05:35:19.639Z,152.60
2023-02-15T05:37:47.713Z,132.53
2023-02-15T05:40:15.881Z,130.00
2023-02-15T05:42:43.745Z,134.60
2023-02-15T05:45:12.167Z,144.33
2023-02-15T05:47:40.134Z,145.17
2023-02-15T05:50:08.741Z,143.93
2023-02-15T05:52:36.786Z,138.30
2023-02-15T05:55:06.140Z,131.23
2023-02-15T05:57:34.472Z,127.13
2023-02-15T06:00:05.510Z,145.40
2023-02-15T06:02:39.800Z,125.83
2023-02-15T06:05:09.052Z,138.63
2023-02-15T06:07:37.178Z,129.37
2023-02-15T06:10:06.000Z,130.87
2023-02-15T06:12:33.865Z,128.00
2023-02-15T06:15:02.308Z,137.00
2023-02-15T06:17:30.635Z,133.10
2023-02-15T06:19:59.000Z,130.90
2023-02-15T06:22:26.879Z,124.50
2023-02-15T06:24:55.055Z,129.10
2023-02-15T06:27:23.062Z,129.27
2023-02-15T06:29:51.239Z,123.23
2023-02-15T06:32:19.189Z,126.40
2023-02-15T06:34:48.797Z,126.93
2023-02-15T06:37:16.757Z,124.80
2023-02-15T06:39:45.659Z,123.80
2023-02-15T06:42:13.542Z,118.27
2023-02-15T06:44:41.718Z,111.33
2023-02-15T06:47:09.696Z,109.80
2023-02-15T06:49:37.954Z,128.43
2023-02-15T06:52:05.912Z,123.67
2023-02-15T06:54:34.018Z,104.33
2023-02-15T06:57:01.987Z,116.87
2023-02-15T06:59:30.342Z,131.83
2023-02-15T07:01:58.279Z,117.20
2023-02-15T07:04:26.200Z,122.60
2023-02-15T07:06:54.323Z,119.97
2023-02-15T07:09:22.952Z,126.53
2023-02-15T07:12:09.791Z,125.63
2023-02-15T07:14:37.964Z,128.53
2023-02-15T07:17:11.666Z,118.73
2023-02-15T07:19:42.917Z,123.53
2023-02-15T07:22:10.888Z,127.27
2023-02-15T07:24:38.912Z,133.87
2023-02-15T07:27:13.356Z,125.27
2023-02-15T07:29:42.204Z,115.43
2023-02-15T07:32:10.395Z,112.50
2023-02-15T07:34:39.098Z,115.03
2023-02-15T07:37:07.036Z,106.87
2023-02-15T07:39:35.411Z,121.63
2023-02-15T07:42:03.261Z,103.73
2023-02-15T07:44:32.976Z,111.73
2023-02-15T07:47:01.085Z,113.70
2023-02-15T07:49:29.640Z,108.37
2023-02-15T07:51:57.439Z,97.47
2023-02-15T07:54:25.915Z,112.97
2023-02-15T07:56:54.045Z,105.27
2023-02-15T07:59:22.198Z,97.07
2023-02-15T08:01:50.008Z,105.00
2023-02-15T08:04:19.513Z,98.93
2023-02-15T08:06:47.242Z,96.07
2023-02-15T08:09:15.738Z,86.23
2023-02-15T08:11:44.050Z,86.60
2023-02-15T08:14:15.206Z,81.77
2023-02-15T08:16:44.532Z,93.73
2023-02-15T08:19:18.169Z,89.03
2023-02-15T08:21:49.732Z,83.20
2023-02-15T08:24:20.312Z,73.87
2023-02-15T08:26:48.895Z,82.60
2023-02-15T08:29:18.469Z,76.70
2023-02-15T08:31:46.503Z,78.77
2023-02-15T08:34:18.273Z,77.57
2023-02-15T08:36:46.386Z,81.07
2023-02-15T08:39:15.953Z,76.27
2023-02-15T08:41:45.865Z,70.47
2023-02-15T08:44:14.198Z,77.83
2023-02-15T08:46:43.146Z,74.13
2023-02-15T08:49:14.589Z,74.87
2023-02-15T08:51:43.031Z,73.40
2023-02-15T08:54:14.403Z,80.80
2023-02-15T08:56:43.669Z,78.00
2023-02-15T08:59:22.945Z,72.40
2023-02-15T09:01:52.365Z,69.00
2023-02-15T09:04:20.925Z,73.00
2023-02-15T09:06:50.003Z,64.80
2023-02-15T09:09:19.108Z,67.77
2023-02-15T09:11:49.005Z,74.93
2023-02-15T09:14:21.996Z,71.27
2023-02-15T09:16:52.015Z,68.67
2023-02-15T09:19:21.873Z,62.63
2023-02-15T09:21:49.488Z,62.83
2023-02-15T09:24:18.251Z,57.03
2023-02-15T09:26:48.236Z,57.03
2023-02-15T09:29:17.399Z,56.57
2023-02-15T09:31:47.299Z,61.73
2023-02-15T09:34:18.320Z,57.57
2023-02-15T09:36:46.506Z,55.70
2023-02-15T09:39:24.962Z,55.67
2023-02-15T09:42:10.583Z,59.97
2023-02-15T09:44:53.457Z,56.27
2023-02-15T09:47:45.274Z,52.97
2023-02-15T09:50:22.255Z,62.50
2023-02-15T09:53:04.772Z,61.20
2023-02-15T09:56:19.562Z,62.80
2023-02-15T09:59:18.348Z,62.33
2023-02-15T10:02:21.722Z,66.80
2023-02-15T10:05:14.141Z,66.13
2023-02-15T10:07:57.700Z,65.27
2023-02-15T10:10:49.977Z,65.00
2023-02-15T10:13:46.828Z,64.47
2023-02-15T10:16:37.220Z,60.30
2023-02-15T10:19:30.295Z,76.23
2023-02-15T10:22:17.859Z,70.33
2023-02-15T10:24:48.717Z,70.33
2023-02-15T10:27:23.240Z,69.50
2023-02-15T10:30:15.493Z,67.10
2023-02-15T10:33:03.387Z,67.67
2023-02-15T10:35:47.096Z,67.53
2023-02-15T10:38:35.243Z,68.30
2023-02-15T10:41:04.415Z,66.90
2023-02-15T10:43:51.063Z,69.20
2023-02-15T10:46:37.399Z,64.93
2023-02-15T10:49:23.107Z,64.93
2023-02-15T10:52:03.762Z,65.07
2023-02-15T10:54:41.942Z,63.80
2023-02-15T10:57:33.765Z,65.60
2023-02-15T11:00:15.601Z,67.40
2023-02-15T11:02:55.534Z,65.47
2023-02-15T11:05:30.173Z,70.43
2023-02-15T11:08:02.960Z,62.17
2023-02-15T11:10:45.449Z,64.53
2023-02-15T11:13:18.402Z,62.77
2023-02-15T11:15:55.699Z,78.70
2023-02-15T11:18:33.621Z,65.80
2023-02-15T11:21:26.342Z,72.37
2023-02-15T11:23:56.332Z,65.67
2023-02-15T11:26:39.667Z,62.83
2023-02-15T11:29:27.616Z,65.67
2023-02-15T11:32:18.909Z,62.40
2023-02-15T11:35:13.955Z,69.43
2023-02-15T11:37:52.630Z,68.03
2023-02-15T11:40:29.814Z,71.30
2023-02-15T11:43:03.801Z,63.03
2023-02-15T11:45:37.373Z,67.67
2023-02-15T11:48:13.112Z,68.97
2023-02-15T11:50:43.808Z,69.43
2023-02-15T11:53:27.985Z,71.20
2023-02-15T11:55:57.187Z,67.50
2023-02-15T11:58:38.864Z,70.33
2023-02-15T12:01:31.811Z,70.07
2023-02-15T12:04:26.661Z,70.73
2023-02-15T12:07:04.577Z,73.97
2023-02-15T12:09:42.735Z,72.57
2023-02-15T12:12:26.942Z,75.03
2023-02-15T12:14:58.298Z,68.07
2023-02-15T12:17:37.186Z,71.13
2023-02-15T12:20:22.271Z,79.60
2023-02-15T12:23:03.566Z,80.87
2023-02-15T12:25:37.606Z,70.23
2023-02-15T12:28:19.412Z,72.10
2023-02-15T12:30:48.099Z,78.93
2023-02-15T12:33:46.743Z,78.13
2023-02-15T12:36:21.817Z,76.60
2023-02-15T12:39:14.454Z,78.20
2023-02-15T12:42:02.782Z,88.67
2023-02-15T12:44:34.673Z,82.57
2023-02-15T12:47:05.865Z,82.63
2023-02-15T12:49:38.305Z,89.97
2023-02-15T12:52:27.434Z,83.70
2023-02-15T12:54:55.449Z,79.57
2023-02-15T12:57:30.274Z,76.17
2023-02-15T12:59:59.789Z,80.37
2023-02-15T13:02:42.936Z,80.93
2023-02-15T13:05:32.992Z,83.23
2023-02-15T13:08:28.901Z,85.33
2023-02-15T13:11:04.768Z,82.77
2023-02-15T13:13:39.172Z,85.73
2023-02-15T13:16:13.348Z,86.47
2023-02-15T13:18:46.751Z,81.50
2023-02-15T13:21:16.139Z,89.77
2023-02-15T13:23:49.772Z,80.30
2023-02-15T13:26:22.368Z,92.00
2023-02-15T13:29:00.028Z,86.70
2023-02-15T13:31:35.711Z,91.97
2023-02-15T13:34:32.910Z,82.17
2023-02-15T13:37:18.204Z,88.37
2023-02-15T13:40:09.264Z,85.80
2023-02-15T13:43:11.793Z,89.90
2023-02-15T13:45:46.095Z,89.13
2023-02-15T13:48:31.408Z,92.30
2023-02-15T13:51:15.011Z,87.60
2023-02-15T13:54:10.933Z,93.90
2023-02-15T13:56:56.854Z,89.53
2023-02-15T13:59:57.828Z,88.50
2023-02-15T14:02:49.836Z,91.33
2023-02-15T14:05:18.011Z,88.13
2023-02-15T14:07:58.906Z,86.63
2023-02-15T14:10:52.760Z,85.50
2023-02-15T14:13:20.533Z,89.13
2023-02-15T14:15:48.576Z,90.80
2023-02-15T14:18:45.113Z,91.20
2023-02-15T14:21:35.782Z,94.20
2023-02-15T14:24:28.278Z,95.53
2023-02-15T14:27:10.870Z,92.83
2023-02-15T14:29:38.253Z,97.00
2023-02-15T14:32:12.973Z,98.27
2023-02-15T14:34:46.938Z,96.70
2023-02-15T14:37:24.301Z,96.73
2023-02-15T14:40:30.156Z,95.43
2023-02-15T14:43:10.529Z,106.53
2023-02-15T14:45:51.305Z,98.90
2023-02-15T14:48:34.720Z,98.50
2023-02-15T14:51:02.827Z,105.53
2023-02-15T14:53:39.444Z,102.50
2023-02-15T14:56:11.560Z,100.20
2023-02-15T14:58:58.180Z,93.03
2023-02-15T15:01:35.310Z,92.03
2023-02-15T15:04:07.483Z,84.10
2023-02-15T15:06:37.438Z,93.60
2023-02-15T15:09:24.391Z,87.80
2023-02-15T15:11:53.937Z,92.23
2023-02-15T15:14:36.038Z,96.70
2023-02-15T15:17:07.450Z,93.27
2023-02-15T15:19:51.986Z,93.00
2023-02-15T15:22:23.662Z,94.37
2023-02-15T15:24:59.763Z,98.23
2023-02-15T15:27:51.444Z,89.43
2023-02-15T15:30:19.893Z,82.07
2023-02-15T15:32:59.138Z,94.63
2023-02-15T15:35:56.851Z,93.40
2023-02-15T15:38:57.453Z,96.93
2023-02-15T15:41:44.433Z,90.83
2023-02-15T15:44:45.740Z,96.07
2023-02-15T15:47:28.780Z,91.20
2023-02-15T15:49:58.372Z,97.63
2023-02-15T15:52:27.456Z,99.47
2023-02-15T15:55:03.303Z,100.73
2023-02-15T15:57:38.903Z,96.60
2023-02-15T16:00:43.155Z,101.47
2023-02-15T16:03:22.040Z,101.00
2023-02-15T16:05:55.272Z,101.10
2023-02-15T16:08:29.319Z,91.43
2023-02-15T16:10:57.526Z,92.80
2023-02-15T16:13:25.812Z,94.20
2023-02-15T16:15:56.063Z,90.27
2023-02-15T16:18:28.416Z,87.40
2023-02-15T16:21:01.367Z,92.63
2023-02-15T16:24:00.778Z,87.80
2023-02-15T16:26:56.707Z,93.27
2023-02-15T16:29:33.252Z,91.60
2023-02-15T16:32:21.715Z,95.83
2023-02-15T16:35:00.821Z,95.37
2023-02-15T16:37:34.172Z,98.90
2023-02-15T16:40:03.084Z,100.03
2023-02-15T16:42:31.017Z,98.50
2023-02-15T16:45:14.839Z,92.37
2023-02-15T16:47:46.295Z,102.87
2023-02-15T16:50:50.859Z,95.87
2023-02-15T16:53:25.372Z,101.07
2023-02-15T16:55:56.749Z,100.13
2023-02-15T16:58:38.745Z,102.37
2023-02-15T17:01:10.566Z,107.17
2023-02-15T17:03:39.594Z,106.90
2023-02-15T17:06:24.516Z,105.73
2023-02-15T17:08:52.148Z,110.07
2023-02-15T17:11:22.168Z,101.93
2023-02-15T17:14:09.814Z,105.20
2023-02-15T17:17:01.949Z,129.77
2023-02-15T17:19:42.371Z,130.53
2023-02-15T17:22:22.485Z,121.33
2023-02-15T17:24:58.096Z,112.70
2023-02-15T17:27:29.208Z,115.10
2023-02-15T17:29:59.171Z,113.63
2023-02-15T17:32:30.713Z,120.10
2023-02-15T17:35:01.607Z,115.70
2023-02-15T17:37:38.482Z,114.13
2023-02-15T17:40:28.433Z,120.63
2023-02-15T17:42:56.079Z,119.13
2023-02-15T17:45:30.540Z,121.37
2023-02-15T17:47:59.896Z,135.77
2023-02-15T17:50:28.681Z,134.83
2023-02-15T17:52:59.554Z,127.43
2023-02-15T17:55:35.912Z,130.27
2023-02-15T17:58:07.258Z,134.00
2023-02-15T18:01:05.768Z,125.10
2023-02-15T18:04:02.852Z,124.17
2023-02-15T18:06:49.064Z,128.83
2023-02-15T18:09:40.498Z,135.50
2023-02-15T18:12:32.287Z,131.97
2023-02-15T18:15:02.105Z,236.60
2023-02-15T18:17:42.103Z,285.33
2023-02-15T18:20:29.704Z,151.77
2023-02-15T18:22:59.154Z,225.20
2023-02-15T18:25:27.570Z,188.97
2023-02-15T18:27:56.110Z,154.00
2023-02-15T18:30:27.281Z,149.17
2023-02-15T18:32:58.516Z,171.43
2023-02-15T18:35:31.748Z,273.53
2023-02-15T18:38:01.590Z,244.70
2023-02-15T18:40:30.893Z,188.80
2023-02-15T18:43:00.164Z,370.63
2023-02-15T18:45:33.763Z,268.73
2023-02-15T18:48:02.484Z,198.43
2023-02-15T18:50:35.476Z,193.60
2023-02-15T18:53:13.030Z,214.20
2023-02-15T18:55:41.471Z,253.80
2023-02-15T18:58:28.957Z,452.13
2023-02-15T19:01:00.999Z,254.83
2023-02-15T19:03:33.421Z,254.33
2023-02-15T19:06:08.275Z,188.17
2023-02-15T19:08:40.792Z,311.67
2023-02-15T19:11:27.905Z,258.53
2023-02-15T19:13:57.127Z,279.87
2023-02-15T19:16:36.482Z,156.40
2023-02-15T19:19:06.870Z,156.80
2023-02-15T19:21:35.785Z,147.33
2023-02-15T19:24:08.209Z,148.90
2023-02-15T19:26:45.579Z,133.47
2023-02-15T19:29:16.210Z,141.33
2023-02-15T19:31:44.784Z,139.27
2023-02-15T19:34:18.213Z,135.60
2023-02-15T19:36:49.160Z,144.20
2023-02-15T19:39:25.675Z,144.83
2023-02-15T19:41:54.534Z,151.67
2023-02-15T19:44:22.586Z,146.43
2023-02-15T19:46:50.978Z,146.83
2023-02-15T19:49:19.053Z,146.30
2023-02-15T19:51:47.940Z,154.33
2023-02-15T19:54:34.258Z,193.37
2023-02-15T19:57:02.596Z,196.70
2023-02-15T19:59:34.488Z,179.10
2023-02-15T20:02:02.733Z,191.60
2023-02-15T20:04:30.492Z,253.03
2023-02-15T20:07:01.837Z,445.07
2023-02-15T20:09:41.191Z,347.63
2023-02-15T20:12:26.165Z,269.43
2023-02-15T20:14:56.391Z,290.43
2023-02-15T20:17:25.879Z,243.87
2023-02-15T20:19:53.894Z,214.67
2023-02-15T20:22:26.527Z,236.97
2023-02-15T20:24:57.386Z,355.00
2023-02-15T20:27:26.679Z,269.07
2023-02-15T20:29:57.429Z,217.17
2023-02-15T20:32:26.480Z,212.43
2023-02-15T20:34:54.551Z,204.70
2023-02-15T20:37:26.789Z,190.00
2023-02-15T20:39:55.339Z,218.90
2023-02-15T20:42:26.028Z,228.43
2023-02-15T20:44:53.659Z,393.00
2023-02-15T20:47:21.680Z,254.57
2023-02-15T20:49:49.132Z,199.43
2023-02-15T20:52:21.236Z,222.83
2023-02-15T20:54:49.138Z,195.73
2023-02-15T20:57:16.984Z,175.10
2023-02-15T20:59:44.535Z,173.50
2023-02-15T21:02:23.221Z,186.93
2023-02-15T21:04:50.923Z,186.23
2023-02-15T21:07:21.907Z,315.57
2023-02-15T21:09:49.818Z,507.30
2023-02-15T21:12:19.895Z,467.40
2023-02-15T21:14:47.517Z,335.03
2023-02-15T21:17:17.050Z,241.67
2023-02-15T21:19:44.920Z,408.40
2023-02-15T21:22:15.112Z,272.20
2023-02-15T21:24:51.931Z,203.23
2023-02-15T21:27:19.828Z,188.93
2023-02-15T21:29:47.452Z,575.13
2023-02-15T21:32:15.465Z,474.03
2023-02-15T21:34:43.065Z,301.80
2023-02-15T21:37:35.708Z,214.27
2023-02-15T21:40:06.051Z,178.53
2023-02-15T21:42:52.223Z,167.40
2023-02-15T21:45:38.512Z,430.13
2023-02-15T21:48:06.473Z,384.87
2023-02-15T21:50:54.431Z,249.23
2023-02-15T21:53:30.315Z,205.40
2023-02-15T21:55:59.638Z,180.17
2023-02-15T21:58:30.070Z,195.93
2023-02-15T22:01:01.367Z,267.83
2023-02-15T22:03:35.642Z,461.27
2023-02-15T22:06:04.440Z,428.07
2023-02-15T22:08:32.693Z,347.43
2023-02-15T22:11:00.358Z,208.10
2023-02-15T22:13:30.992Z,190.20
2023-02-15T22:15:59.434Z,189.53
2023-02-15T22:18:33.610Z,187.03
2023-02-15T22:21:02.726Z,183.30
2023-02-15T22:23:31.162Z,268.57
2023-02-15T22:26:03.045Z,286.03
2023-02-15T22:28:36.240Z,252.73
2023-02-15T22:31:04.840Z,513.93
2023-02-15T22:33:34.379Z,285.00
2023-02-15T22:36:02.381Z,224.97
2023-02-15T22:38:30.236Z,198.47
2023-02-15T22:41:04.201Z,218.40
2023-02-15T22:43:39.123Z,369.43
2023-02-15T22:46:20.184Z,300.43
2023-02-15T22:48:49.029Z,234.27
2023-02-15T22:51:20.257Z,206.40
2023-02-15T22:53:49.819Z,372.30
2023-02-15T22:56:21.090Z,346.17
2023-02-15T22:58:50.589Z,460.43
2023-02-15T23:01:29.889Z,438.27
2023-02-15T23:03:57.573Z,393.53
2023-02-15T23:06:25.128Z,342.33
2023-02-15T23:08:52.819Z,301.63
2023-02-15T23:11:20.818Z,219.57
2023-02-15T23:13:50.035Z,183.70
2023-02-15T23:16:18.420Z,172.57
2023-02-15T23:18:47.693Z,174.43
2023-02-15T23:21:26.981Z,178.63
2023-02-15T23:24:21.312Z,218.83
2023-02-15T23:26:49.842Z,210.27
2023-02-15T23:29:22.977Z,205.10
2023-02-15T23:31:53.665Z,213.77
2023-02-15T23:34:26.685Z,200.80
2023-02-15T23:36:54.068Z,390.70
2023-02-15T23:39:43.155Z,663.37
2023-02-15T23:42:31.926Z,485.10
2023-02-15T23:45:00.301Z,233.33
2023-02-15T23:47:54.673Z,218.67
2023-02-15T23:50:28.441Z,219.20
2023-02-15T23:52:57.221Z,209.70
2023-02-15T23:55:39.884Z,212.33
2023-02-15T23:58:14.972Z,205.33
